sensor_id;sensor_type;location;lat;lon;timestamp;P1;durP1;ratioP1;P2;durP2;ratioP2
51382;SDS011;37475;43.358;1.248;2023-04-29T00:02:12;10.80;;;6.25;;
51382;SDS011;37475;43.358;1.248;2023-04-29T00:04:38;14.77;;;6.70;;
51382;SDS011;37475;43.358;1.248;2023-04-29T00:07:03;13.05;;;6.35;;
51382;SDS011;37475;43.358;1.248;2023-04-29T00:09:29;12.30;;;6.47;;
51382;SDS011;37475;43.358;1.248;2023-04-29T00:11:55;12.68;;;6.05;;
51382;SDS011;37475;43.358;1.248;2023-04-29T00:14:21;13.65;;;6.70;;
51382;SDS011;37475;43.358;1.248;2023-04-29T00:16:47;12.02;;;6.40;;
51382;SDS011;37475;43.358;1.248;2023-04-29T00:19:12;11.77;;;6.60;;
51382;SDS011;37475;43.358;1.248;2023-04-29T00:21:38;11.23;;;6.93;;
51382;SDS011;37475;43.358;1.248;2023-04-29T00:24:04;10.68;;;6.30;;
51382;SDS011;37475;43.358;1.248;2023-04-29T00:26:30;10.88;;;6.38;;
51382;SDS011;37475;43.358;1.248;2023-04-29T00:28:56;10.45;;;5.90;;
51382;SDS011;37475;43.358;1.248;2023-04-29T00:31:22;12.57;;;6.60;;
51382;SDS011;37475;43.358;1.248;2023-04-29T00:33:48;11.20;;;6.22;;
51382;SDS011;37475;43.358;1.248;2023-04-29T00:36:14;12.35;;;6.55;;
51382;SDS011;37475;43.358;1.248;2023-04-29T00:38:39;10.55;;;6.00;;
51382;SDS011;37475;43.358;1.248;2023-04-29T00:41:05;10.90;;;5.55;;
51382;SDS011;37475;43.358;1.248;2023-04-29T00:43:31;12.40;;;6.05;;
51382;SDS011;37475;43.358;1.248;2023-04-29T00:45:57;11.70;;;6.50;;
51382;SDS011;37475;43.358;1.248;2023-04-29T00:48:23;11.50;;;6.97;;
51382;SDS011;37475;43.358;1.248;2023-04-29T00:50:48;11.82;;;6.15;;
51382;SDS011;37475;43.358;1.248;2023-04-29T00:53:15;9.27;;;6.35;;
51382;SDS011;37475;43.358;1.248;2023-04-29T00:55:41;12.57;;;6.80;;
51382;SDS011;37475;43.358;1.248;2023-04-29T00:58:08;11.02;;;6.68;;
51382;SDS011;37475;43.358;1.248;2023-04-29T01:00:35;12.32;;;6.43;;
51382;SDS011;37475;43.358;1.248;2023-04-29T01:03:03;10.93;;;6.57;;
51382;SDS011;37475;43.358;1.248;2023-04-29T01:05:29;11.23;;;6.50;;
51382;SDS011;37475;43.358;1.248;2023-04-29T01:08:08;12.30;;;6.53;;
51382;SDS011;37475;43.358;1.248;2023-04-29T01:11:18;14.00;;;6.28;;
51382;SDS011;37475;43.358;1.248;2023-04-29T01:13:53;11.85;;;6.50;;
51382;SDS011;37475;43.358;1.248;2023-04-29T01:16:29;12.07;;;6.70;;
51382;SDS011;37475;43.358;1.248;2023-04-29T01:21:57;10.57;;;6.78;;
51382;SDS011;37475;43.358;1.248;2023-04-29T01:24:23;13.63;;;6.82;;
51382;SDS011;37475;43.358;1.248;2023-04-29T01:26:55;11.00;;;6.18;;
51382;SDS011;37475;43.358;1.248;2023-04-29T01:29:42;10.73;;;6.30;;
51382;SDS011;37475;43.358;1.248;2023-04-29T01:41:34;13.18;;;7.07;;
51382;SDS011;37475;43.358;1.248;2023-04-29T01:43:42;11.23;;;7.18;;
51382;SDS011;37475;43.358;1.248;2023-04-29T01:46:12;11.40;;;6.55;;
51382;SDS011;37475;43.358;1.248;2023-04-29T01:48:42;11.57;;;6.63;;
51382;SDS011;37475;43.358;1.248;2023-04-29T01:51:08;15.15;;;7.03;;
51382;SDS011;37475;43.358;1.248;2023-04-29T01:53:35;11.23;;;6.90;;
51382;SDS011;37475;43.358;1.248;2023-04-29T01:56:01;12.27;;;6.95;;
51382;SDS011;37475;43.358;1.248;2023-04-29T01:58:27;12.77;;;7.15;;
51382;SDS011;37475;43.358;1.248;2023-04-29T02:00:53;12.57;;;6.82;;
51382;SDS011;37475;43.358;1.248;2023-04-29T02:03:19;10.77;;;6.70;;
51382;SDS011;37475;43.358;1.248;2023-04-29T02:05:45;12.18;;;7.18;;
51382;SDS011;37475;43.358;1.248;2023-04-29T02:08:11;15.52;;;7.32;;
51382;SDS011;37475;43.358;1.248;2023-04-29T02:10:37;12.75;;;7.25;;
51382;SDS011;37475;43.358;1.248;2023-04-29T02:13:02;15.13;;;7.05;;
51382;SDS011;37475;43.358;1.248;2023-04-29T02:15:28;12.07;;;6.82;;
51382;SDS011;37475;43.358;1.248;2023-04-29T02:17:54;14.82;;;7.63;;
51382;SDS011;37475;43.358;1.248;2023-04-29T02:20:20;16.15;;;8.07;;
51382;SDS011;37475;43.358;1.248;2023-04-29T02:22:45;13.93;;;7.43;;
51382;SDS011;37475;43.358;1.248;2023-04-29T02:25:11;12.82;;;7.72;;
51382;SDS011;37475;43.358;1.248;2023-04-29T02:27:37;16.63;;;8.50;;
51382;SDS011;37475;43.358;1.248;2023-04-29T02:30:03;15.60;;;9.15;;
51382;SDS011;37475;43.358;1.248;2023-04-29T02:32:30;17.25;;;8.52;;
51382;SDS011;37475;43.358;1.248;2023-04-29T02:34:56;15.82;;;9.77;;
51382;SDS011;37475;43.358;1.248;2023-04-29T02:37:22;19.30;;;9.68;;
51382;SDS011;37475;43.358;1.248;2023-04-29T02:39:47;18.23;;;9.75;;
51382;SDS011;37475;43.358;1.248;2023-04-29T02:42:13;20.02;;;9.70;;
51382;SDS011;37475;43.358;1.248;2023-04-29T02:44:39;22.02;;;9.85;;
51382;SDS011;37475;43.358;1.248;2023-04-29T02:47:06;21.25;;;9.05;;
51382;SDS011;37475;43.358;1.248;2023-04-29T02:49:32;18.08;;;10.35;;
51382;SDS011;37475;43.358;1.248;2023-04-29T02:51:58;18.55;;;10.35;;
51382;SDS011;37475;43.358;1.248;2023-04-29T02:54:23;24.77;;;11.20;;
51382;SDS011;37475;43.358;1.248;2023-04-29T02:56:50;25.67;;;10.05;;
51382;SDS011;37475;43.358;1.248;2023-04-29T02:59:15;24.60;;;11.35;;
51382;SDS011;37475;43.358;1.248;2023-04-29T03:01:41;24.02;;;11.80;;
51382;SDS011;37475;43.358;1.248;2023-04-29T03:04:07;21.20;;;11.20;;
51382;SDS011;37475;43.358;1.248;2023-04-29T03:06:32;27.77;;;11.82;;
51382;SDS011;37475;43.358;1.248;2023-04-29T03:08:58;24.88;;;12.10;;
51382;SDS011;37475;43.358;1.248;2023-04-29T03:11:24;25.75;;;12.38;;
51382;SDS011;37475;43.358;1.248;2023-04-29T03:13:50;27.83;;;12.75;;
51382;SDS011;37475;43.358;1.248;2023-04-29T03:16:16;27.27;;;13.18;;
51382;SDS011;37475;43.358;1.248;2023-04-29T03:18:42;28.10;;;13.07;;
51382;SDS011;37475;43.358;1.248;2023-04-29T03:21:09;30.75;;;14.23;;
51382;SDS011;37475;43.358;1.248;2023-04-29T03:23:34;31.73;;;13.60;;
51382;SDS011;37475;43.358;1.248;2023-04-29T03:26:03;31.88;;;14.02;;
51382;SDS011;37475;43.358;1.248;2023-04-29T03:28:29;36.15;;;14.13;;
51382;SDS011;37475;43.358;1.248;2023-04-29T03:30:55;31.17;;;14.02;;
51382;SDS011;37475;43.358;1.248;2023-04-29T03:33:21;44.53;;;14.70;;
51382;SDS011;37475;43.358;1.248;2023-04-29T03:35:47;31.52;;;14.30;;
51382;SDS011;37475;43.358;1.248;2023-04-29T03:38:12;36.30;;;15.88;;
51382;SDS011;37475;43.358;1.248;2023-04-29T03:40:38;39.00;;;15.85;;
51382;SDS011;37475;43.358;1.248;2023-04-29T03:43:04;36.95;;;15.20;;
51382;SDS011;37475;43.358;1.248;2023-04-29T03:45:33;45.78;;;16.20;;
51382;SDS011;37475;43.358;1.248;2023-04-29T03:47:59;39.15;;;15.43;;
51382;SDS011;37475;43.358;1.248;2023-04-29T03:50:25;36.22;;;14.98;;
51382;SDS011;37475;43.358;1.248;2023-04-29T03:52:51;37.97;;;15.90;;
51382;SDS011;37475;43.358;1.248;2023-04-29T03:55:16;30.10;;;15.35;;
51382;SDS011;37475;43.358;1.248;2023-04-29T03:57:42;36.85;;;16.88;;
51382;SDS011;37475;43.358;1.248;2023-04-29T04:00:08;28.08;;;14.68;;
51382;SDS011;37475;43.358;1.248;2023-04-29T04:02:35;41.83;;;16.50;;
51382;SDS011;37475;43.358;1.248;2023-04-29T04:05:00;35.65;;;16.48;;
51382;SDS011;37475;43.358;1.248;2023-04-29T04:07:26;34.20;;;16.38;;
51382;SDS011;37475;43.358;1.248;2023-04-29T04:09:52;33.47;;;17.17;;
51382;SDS011;37475;43.358;1.248;2023-04-29T04:12:18;41.83;;;17.38;;
51382;SDS011;37475;43.358;1.248;2023-04-29T04:14:43;34.05;;;16.55;;
51382;SDS011;37475;43.358;1.248;2023-04-29T04:17:09;38.78;;;17.52;;
51382;SDS011;37475;43.358;1.248;2023-04-29T04:19:35;36.08;;;16.70;;
51382;SDS011;37475;43.358;1.248;2023-04-29T04:22:02;35.20;;;17.92;;
51382;SDS011;37475;43.358;1.248;2023-04-29T04:24:28;36.53;;;18.00;;
51382;SDS011;37475;43.358;1.248;2023-04-29T04:26:54;37.30;;;18.40;;
51382;SDS011;37475;43.358;1.248;2023-04-29T04:29:20;42.08;;;19.20;;
51382;SDS011;37475;43.358;1.248;2023-04-29T04:31:46;39.97;;;19.05;;
51382;SDS011;37475;43.358;1.248;2023-04-29T04:34:11;42.00;;;19.50;;
51382;SDS011;37475;43.358;1.248;2023-04-29T04:36:37;43.10;;;20.10;;
51382;SDS011;37475;43.358;1.248;2023-04-29T04:39:03;43.40;;;20.40;;
51382;SDS011;37475;43.358;1.248;2023-04-29T04:41:29;47.47;;;20.85;;
51382;SDS011;37475;43.358;1.248;2023-04-29T04:43:57;50.15;;;21.27;;
51382;SDS011;37475;43.358;1.248;2023-04-29T04:46:23;46.30;;;21.50;;
51382;SDS011;37475;43.358;1.248;2023-04-29T04:48:49;40.88;;;19.80;;
51382;SDS011;37475;43.358;1.248;2023-04-29T04:51:15;41.63;;;20.40;;
51382;SDS011;37475;43.358;1.248;2023-04-29T04:53:40;48.55;;;21.67;;
51382;SDS011;37475;43.358;1.248;2023-04-29T04:56:06;39.28;;;19.35;;
51382;SDS011;37475;43.358;1.248;2023-04-29T04:58:32;33.58;;;17.40;;
51382;SDS011;37475;43.358;1.248;2023-04-29T05:00:58;41.90;;;18.23;;
51382;SDS011;37475;43.358;1.248;2023-04-29T05:03:25;37.83;;;17.73;;
51382;SDS011;37475;43.358;1.248;2023-04-29T05:05:54;35.00;;;16.20;;
51382;SDS011;37475;43.358;1.248;2023-04-29T05:08:24;34.70;;;16.10;;
51382;SDS011;37475;43.358;1.248;2023-04-29T05:10:51;30.85;;;14.95;;
51382;SDS011;37475;43.358;1.248;2023-04-29T05:13:17;29.42;;;15.05;;
51382;SDS011;37475;43.358;1.248;2023-04-29T05:15:43;29.77;;;14.88;;
51382;SDS011;37475;43.358;1.248;2023-04-29T05:18:10;27.58;;;15.18;;
51382;SDS011;37475;43.358;1.248;2023-04-29T05:20:36;31.15;;;15.27;;
51382;SDS011;37475;43.358;1.248;2023-04-29T05:23:02;33.30;;;15.48;;
51382;SDS011;37475;43.358;1.248;2023-04-29T05:25:28;30.67;;;14.85;;
51382;SDS011;37475;43.358;1.248;2023-04-29T05:27:54;32.20;;;15.18;;
51382;SDS011;37475;43.358;1.248;2023-04-29T05:30:20;26.98;;;14.23;;
51382;SDS011;37475;43.358;1.248;2023-04-29T05:32:46;30.08;;;15.45;;
51382;SDS011;37475;43.358;1.248;2023-04-29T05:35:15;31.58;;;15.07;;
51382;SDS011;37475;43.358;1.248;2023-04-29T05:37:41;30.80;;;15.63;;
51382;SDS011;37475;43.358;1.248;2023-04-29T05:40:08;32.22;;;15.18;;
51382;SDS011;37475;43.358;1.248;2023-04-29T05:42:34;32.22;;;16.50;;
51382;SDS011;37475;43.358;1.248;2023-04-29T05:45:00;32.55;;;15.40;;
51382;SDS011;37475;43.358;1.248;2023-04-29T05:47:26;30.65;;;15.65;;
51382;SDS011;37475;43.358;1.248;2023-04-29T05:49:51;32.00;;;15.60;;
51382;SDS011;37475;43.358;1.248;2023-04-29T05:52:17;30.42;;;15.57;;
51382;SDS011;37475;43.358;1.248;2023-04-29T05:54:43;34.05;;;17.05;;
51382;SDS011;37475;43.358;1.248;2023-04-29T05:57:09;39.85;;;17.58;;
51382;SDS011;37475;43.358;1.248;2023-04-29T05:59:35;37.80;;;16.55;;
51382;SDS011;37475;43.358;1.248;2023-04-29T06:02:00;29.88;;;16.10;;
51382;SDS011;37475;43.358;1.248;2023-04-29T06:04:27;33.50;;;16.35;;
51382;SDS011;37475;43.358;1.248;2023-04-29T06:06:53;32.30;;;15.70;;
51382;SDS011;37475;43.358;1.248;2023-04-29T06:09:21;36.15;;;17.23;;
51382;SDS011;37475;43.358;1.248;2023-04-29T06:11:50;35.65;;;16.95;;
51382;SDS011;37475;43.358;1.248;2023-04-29T06:14:16;40.38;;;16.90;;
51382;SDS011;37475;43.358;1.248;2023-04-29T06:16:42;40.22;;;17.25;;
51382;SDS011;37475;43.358;1.248;2023-04-29T06:19:08;34.90;;;16.88;;
51382;SDS011;37475;43.358;1.248;2023-04-29T06:21:34;35.15;;;16.30;;
51382;SDS011;37475;43.358;1.248;2023-04-29T06:23:59;36.65;;;16.80;;
51382;SDS011;37475;43.358;1.248;2023-04-29T06:26:25;39.58;;;17.50;;
51382;SDS011;37475;43.358;1.248;2023-04-29T06:28:51;42.40;;;17.52;;
51382;SDS011;37475;43.358;1.248;2023-04-29T06:31:18;32.53;;;16.40;;
51382;SDS011;37475;43.358;1.248;2023-04-29T06:33:43;35.75;;;17.15;;
51382;SDS011;37475;43.358;1.248;2023-04-29T06:36:10;39.70;;;16.55;;
51382;SDS011;37475;43.358;1.248;2023-04-29T06:38:36;30.60;;;15.80;;
51382;SDS011;37475;43.358;1.248;2023-04-29T06:41:02;33.40;;;16.45;;
51382;SDS011;37475;43.358;1.248;2023-04-29T06:43:31;33.80;;;16.02;;
51382;SDS011;37475;43.358;1.248;2023-04-29T06:45:57;33.08;;;15.98;;
51382;SDS011;37475;43.358;1.248;2023-04-29T06:48:23;31.20;;;15.43;;
51382;SDS011;37475;43.358;1.248;2023-04-29T06:53:22;32.05;;;16.13;;
51382;SDS011;37475;43.358;1.248;2023-04-29T06:55:49;33.22;;;15.38;;
51382;SDS011;37475;43.358;1.248;2023-04-29T06:58:15;31.25;;;15.93;;
51382;SDS011;37475;43.358;1.248;2023-04-29T07:00:43;36.15;;;16.55;;
51382;SDS011;37475;43.358;1.248;2023-04-29T07:03:14;33.53;;;15.27;;
51382;SDS011;37475;43.358;1.248;2023-04-29T07:05:42;32.95;;;17.02;;
51382;SDS011;37475;43.358;1.248;2023-04-29T07:08:12;32.88;;;16.45;;
51382;SDS011;37475;43.358;1.248;2023-04-29T07:10:38;31.40;;;17.00;;
51382;SDS011;37475;43.358;1.248;2023-04-29T07:13:08;40.35;;;17.48;;
51382;SDS011;37475;43.358;1.248;2023-04-29T07:15:34;30.77;;;15.90;;
51382;SDS011;37475;43.358;1.248;2023-04-29T07:18:04;35.97;;;17.42;;
51382;SDS011;37475;43.358;1.248;2023-04-29T07:20:30;31.10;;;15.27;;
51382;SDS011;37475;43.358;1.248;2023-04-29T07:22:56;35.08;;;17.70;;
51382;SDS011;37475;43.358;1.248;2023-04-29T07:25:22;34.97;;;16.55;;
51382;SDS011;37475;43.358;1.248;2023-04-29T07:27:50;32.53;;;17.52;;
51382;SDS011;37475;43.358;1.248;2023-04-29T07:30:16;31.40;;;16.23;;
51382;SDS011;37475;43.358;1.248;2023-04-29T07:32:42;29.80;;;15.82;;
51382;SDS011;37475;43.358;1.248;2023-04-29T07:35:08;32.95;;;16.42;;
51382;SDS011;37475;43.358;1.248;2023-04-29T07:37:34;36.75;;;17.42;;
51382;SDS011;37475;43.358;1.248;2023-04-29T07:40:00;35.47;;;18.38;;
51382;SDS011;37475;43.358;1.248;2023-04-29T07:42:25;35.28;;;16.80;;
51382;SDS011;37475;43.358;1.248;2023-04-29T07:44:51;29.02;;;15.52;;
51382;SDS011;37475;43.358;1.248;2023-04-29T07:47:17;30.10;;;15.80;;
51382;SDS011;37475;43.358;1.248;2023-04-29T07:49:43;29.00;;;15.25;;
51382;SDS011;37475;43.358;1.248;2023-04-29T07:52:08;27.52;;;14.98;;
51382;SDS011;37475;43.358;1.248;2023-04-29T07:54:35;31.10;;;15.20;;
51382;SDS011;37475;43.358;1.248;2023-04-29T07:57:01;26.98;;;15.13;;
51382;SDS011;37475;43.358;1.248;2023-04-29T07:59:30;29.17;;;14.80;;
51382;SDS011;37475;43.358;1.248;2023-04-29T08:01:56;26.30;;;14.60;;
51382;SDS011;37475;43.358;1.248;2023-04-29T08:04:22;30.85;;;15.20;;
51382;SDS011;37475;43.358;1.248;2023-04-29T08:06:48;28.13;;;14.77;;
51382;SDS011;37475;43.358;1.248;2023-04-29T08:09:14;33.15;;;15.90;;
51382;SDS011;37475;43.358;1.248;2023-04-29T08:11:40;31.65;;;15.82;;
51382;SDS011;37475;43.358;1.248;2023-04-29T08:14:07;28.15;;;14.27;;
51382;SDS011;37475;43.358;1.248;2023-04-29T08:16:33;28.10;;;14.85;;
51382;SDS011;37475;43.358;1.248;2023-04-29T08:18:59;27.33;;;13.48;;
51382;SDS011;37475;43.358;1.248;2023-04-29T08:21:24;23.83;;;12.68;;
51382;SDS011;37475;43.358;1.248;2023-04-29T08:23:51;23.38;;;11.80;;
51382;SDS011;37475;43.358;1.248;2023-04-29T08:26:18;28.98;;;15.60;;
51382;SDS011;37475;43.358;1.248;2023-04-29T08:28:44;22.75;;;12.70;;
51382;SDS011;37475;43.358;1.248;2023-04-29T08:31:19;24.23;;;12.75;;
51382;SDS011;37475;43.358;1.248;2023-04-29T08:33:46;21.20;;;12.07;;
51382;SDS011;37475;43.358;1.248;2023-04-29T08:36:12;22.42;;;11.70;;
51382;SDS011;37475;43.358;1.248;2023-04-29T08:38:38;18.20;;;10.90;;
51382;SDS011;37475;43.358;1.248;2023-04-29T08:41:06;19.48;;;10.18;;
51382;SDS011;37475;43.358;1.248;2023-04-29T08:43:36;18.52;;;10.90;;
51382;SDS011;37475;43.358;1.248;2023-04-29T08:46:04;17.75;;;10.27;;
51382;SDS011;37475;43.358;1.248;2023-04-29T08:48:30;15.43;;;9.38;;
51382;SDS011;37475;43.358;1.248;2023-04-29T08:50:56;16.83;;;9.50;;
51382;SDS011;37475;43.358;1.248;2023-04-29T08:53:23;17.58;;;9.90;;
51382;SDS011;37475;43.358;1.248;2023-04-29T08:55:49;17.58;;;9.77;;
51382;SDS011;37475;43.358;1.248;2023-04-29T08:58:16;17.20;;;9.63;;
51382;SDS011;37475;43.358;1.248;2023-04-29T09:00:43;18.15;;;10.15;;
51382;SDS011;37475;43.358;1.248;2023-04-29T09:03:13;17.60;;;10.15;;
51382;SDS011;37475;43.358;1.248;2023-04-29T09:05:54;17.95;;;10.55;;
51382;SDS011;37475;43.358;1.248;2023-04-29T09:08:24;17.65;;;10.50;;
51382;SDS011;37475;43.358;1.248;2023-04-29T09:10:51;20.17;;;10.82;;
51382;SDS011;37475;43.358;1.248;2023-04-29T09:15:51;21.08;;;10.27;;
51382;SDS011;37475;43.358;1.248;2023-04-29T09:21:48;19.05;;;10.63;;
51382;SDS011;37475;43.358;1.248;2023-04-29T09:23:59;18.90;;;9.93;;
51382;SDS011;37475;43.358;1.248;2023-04-29T09:26:26;19.27;;;10.05;;
51382;SDS011;37475;43.358;1.248;2023-04-29T09:31:39;16.55;;;8.52;;
51382;SDS011;37475;43.358;1.248;2023-04-29T09:34:06;16.88;;;9.27;;
51382;SDS011;37475;43.358;1.248;2023-04-29T09:36:42;15.88;;;8.57;;
51382;SDS011;37475;43.358;1.248;2023-04-29T09:39:12;15.52;;;8.70;;
51382;SDS011;37475;43.358;1.248;2023-04-29T09:41:41;14.50;;;8.57;;
51382;SDS011;37475;43.358;1.248;2023-04-29T09:44:16;18.33;;;9.23;;
51382;SDS011;37475;43.358;1.248;2023-04-29T09:46:43;16.60;;;8.48;;
51382;SDS011;37475;43.358;1.248;2023-04-29T09:49:24;14.15;;;8.20;;
51382;SDS011;37475;43.358;1.248;2023-04-29T09:51:57;16.83;;;8.57;;
51382;SDS011;37475;43.358;1.248;2023-04-29T09:54:29;15.35;;;8.25;;
51382;SDS011;37475;43.358;1.248;2023-04-29T09:56:57;16.52;;;8.77;;
51382;SDS011;37475;43.358;1.248;2023-04-29T09:59:25;14.55;;;8.43;;
51382;SDS011;37475;43.358;1.248;2023-04-29T10:01:54;17.50;;;7.68;;
51382;SDS011;37475;43.358;1.248;2023-04-29T10:04:22;13.23;;;8.20;;
51382;SDS011;37475;43.358;1.248;2023-04-29T10:06:52;12.77;;;7.95;;
51382;SDS011;37475;43.358;1.248;2023-04-29T10:09:20;14.15;;;7.78;;
51382;SDS011;37475;43.358;1.248;2023-04-29T10:11:48;16.90;;;8.45;;
51382;SDS011;37475;43.358;1.248;2023-04-29T10:14:18;17.95;;;8.20;;
51382;SDS011;37475;43.358;1.248;2023-04-29T10:16:53;15.35;;;8.20;;
51382;SDS011;37475;43.358;1.248;2023-04-29T10:19:55;12.68;;;7.47;;
51382;SDS011;37475;43.358;1.248;2023-04-29T10:22:39;13.23;;;7.00;;
51382;SDS011;37475;43.358;1.248;2023-04-29T10:25:14;10.32;;;7.03;;
51382;SDS011;37475;43.358;1.248;2023-04-29T10:27:42;12.45;;;6.43;;
51382;SDS011;37475;43.358;1.248;2023-04-29T10:30:12;12.27;;;6.40;;
51382;SDS011;37475;43.358;1.248;2023-04-29T10:32:40;12.98;;;6.60;;
51382;SDS011;37475;43.358;1.248;2023-04-29T10:35:08;11.32;;;6.80;;
51382;SDS011;37475;43.358;1.248;2023-04-29T10:37:45;10.60;;;6.95;;
51382;SDS011;37475;43.358;1.248;2023-04-29T10:42:58;8.90;;;5.72;;
51382;SDS011;37475;43.358;1.248;2023-04-29T10:50:39;8.20;;;5.22;;
51382;SDS011;37475;43.358;1.248;2023-04-29T10:53:11;9.18;;;5.63;;
51382;SDS011;37475;43.358;1.248;2023-04-29T10:55:38;10.25;;;5.32;;
51382;SDS011;37475;43.358;1.248;2023-04-29T10:58:05;8.30;;;5.38;;
51382;SDS011;37475;43.358;1.248;2023-04-29T11:01:10;11.95;;;4.88;;
51382;SDS011;37475;43.358;1.248;2023-04-29T11:09:41;9.13;;;5.80;;
51382;SDS011;37475;43.358;1.248;2023-04-29T11:17:18;11.38;;;6.07;;
51382;SDS011;37475;43.358;1.248;2023-04-29T11:19:45;11.20;;;5.50;;
51382;SDS011;37475;43.358;1.248;2023-04-29T11:27:30;10.38;;;5.45;;
51382;SDS011;37475;43.358;1.248;2023-04-29T11:30:04;7.93;;;4.72;;
51382;SDS011;37475;43.358;1.248;2023-04-29T11:32:38;7.45;;;4.72;;
51382;SDS011;37475;43.358;1.248;2023-04-29T11:37:38;9.35;;;5.15;;
51382;SDS011;37475;43.358;1.248;2023-04-29T11:40:05;8.02;;;4.60;;
51382;SDS011;37475;43.358;1.248;2023-04-29T11:42:33;6.95;;;3.83;;
51382;SDS011;37475;43.358;1.248;2023-04-29T11:45:00;6.85;;;4.30;;
51382;SDS011;37475;43.358;1.248;2023-04-29T11:47:27;8.30;;;4.07;;
51382;SDS011;37475;43.358;1.248;2023-04-29T11:50:07;7.97;;;4.15;;
51382;SDS011;37475;43.358;1.248;2023-04-29T11:52:35;6.97;;;3.72;;
51382;SDS011;37475;43.358;1.248;2023-04-29T11:55:03;8.55;;;4.95;;
51382;SDS011;37475;43.358;1.248;2023-04-29T11:57:30;9.75;;;5.60;;
51382;SDS011;37475;43.358;1.248;2023-04-29T11:59:57;8.68;;;5.13;;
51382;SDS011;37475;43.358;1.248;2023-04-29T12:02:32;9.40;;;5.95;;
51382;SDS011;37475;43.358;1.248;2023-04-29T12:04:59;8.13;;;5.57;;
51382;SDS011;37475;43.358;1.248;2023-04-29T12:07:30;10.45;;;6.82;;
51382;SDS011;37475;43.358;1.248;2023-04-29T12:09:56;9.55;;;6.35;;
51382;SDS011;37475;43.358;1.248;2023-04-29T12:12:22;10.48;;;6.63;;
51382;SDS011;37475;43.358;1.248;2023-04-29T12:14:48;11.73;;;7.10;;
51382;SDS011;37475;43.358;1.248;2023-04-29T12:17:14;12.40;;;7.43;;
51382;SDS011;37475;43.358;1.248;2023-04-29T12:19:43;11.07;;;7.28;;
51382;SDS011;37475;43.358;1.248;2023-04-29T12:22:09;13.95;;;7.72;;
51382;SDS011;37475;43.358;1.248;2023-04-29T12:24:36;14.05;;;7.63;;
51382;SDS011;37475;43.358;1.248;2023-04-29T12:27:07;12.77;;;7.32;;
51382;SDS011;37475;43.358;1.248;2023-04-29T12:29:34;14.40;;;8.05;;
51382;SDS011;37475;43.358;1.248;2023-04-29T12:32:01;13.40;;;7.75;;
51382;SDS011;37475;43.358;1.248;2023-04-29T12:34:28;18.38;;;11.20;;
51382;SDS011;37475;43.358;1.248;2023-04-29T12:36:57;14.88;;;8.07;;
51382;SDS011;37475;43.358;1.248;2023-04-29T12:39:25;13.60;;;8.18;;
51382;SDS011;37475;43.358;1.248;2023-04-29T12:41:58;13.32;;;7.93;;
51382;SDS011;37475;43.358;1.248;2023-04-29T12:44:25;14.05;;;7.78;;
51382;SDS011;37475;43.358;1.248;2023-04-29T12:47:05;16.30;;;8.30;;
51382;SDS011;37475;43.358;1.248;2023-04-29T12:49:35;14.35;;;8.07;;
51382;SDS011;37475;43.358;1.248;2023-04-29T12:52:04;14.73;;;8.63;;
51382;SDS011;37475;43.358;1.248;2023-04-29T12:54:33;16.02;;;8.75;;
51382;SDS011;37475;43.358;1.248;2023-04-29T12:57:00;14.82;;;8.65;;
51382;SDS011;37475;43.358;1.248;2023-04-29T12:59:27;21.00;;;8.13;;
51382;SDS011;37475;43.358;1.248;2023-04-29T13:01:52;14.98;;;8.18;;
51382;SDS011;37475;43.358;1.248;2023-04-29T13:04:18;14.95;;;7.10;;
51382;SDS011;37475;43.358;1.248;2023-04-29T13:06:44;13.27;;;6.68;;
51382;SDS011;37475;43.358;1.248;2023-04-29T13:09:10;12.77;;;6.55;;
51382;SDS011;37475;43.358;1.248;2023-04-29T13:11:39;9.88;;;6.05;;
51382;SDS011;37475;43.358;1.248;2023-04-29T13:14:05;10.45;;;6.25;;
51382;SDS011;37475;43.358;1.248;2023-04-29T13:16:31;11.55;;;6.75;;
51382;SDS011;37475;43.358;1.248;2023-04-29T13:18:58;11.73;;;6.55;;
51382;SDS011;37475;43.358;1.248;2023-04-29T13:21:25;10.73;;;5.68;;
51382;SDS011;37475;43.358;1.248;2023-04-29T13:23:52;10.98;;;6.88;;
51382;SDS011;37475;43.358;1.248;2023-04-29T13:26:18;11.55;;;6.82;;
51382;SDS011;37475;43.358;1.248;2023-04-29T13:28:44;9.65;;;6.00;;
51382;SDS011;37475;43.358;1.248;2023-04-29T13:31:11;10.48;;;7.00;;
51382;SDS011;37475;43.358;1.248;2023-04-29T13:33:37;12.50;;;6.57;;
51382;SDS011;37475;43.358;1.248;2023-04-29T13:36:02;12.55;;;6.82;;
51382;SDS011;37475;43.358;1.248;2023-04-29T13:38:29;12.95;;;7.85;;
51382;SDS011;37475;43.358;1.248;2023-04-29T13:40:56;15.60;;;8.27;;
51382;SDS011;37475;43.358;1.248;2023-04-29T13:43:21;15.32;;;7.90;;
51382;SDS011;37475;43.358;1.248;2023-04-29T13:45:48;13.43;;;7.32;;
51382;SDS011;37475;43.358;1.248;2023-04-29T13:48:15;12.60;;;5.95;;
51382;SDS011;37475;43.358;1.248;2023-04-29T13:50:41;12.50;;;7.22;;
51382;SDS011;37475;43.358;1.248;2023-04-29T13:53:08;12.77;;;7.25;;
51382;SDS011;37475;43.358;1.248;2023-04-29T13:55:34;11.88;;;6.75;;
51382;SDS011;37475;43.358;1.248;2023-04-29T13:58:00;13.88;;;7.85;;
51382;SDS011;37475;43.358;1.248;2023-04-29T14:00:26;11.73;;;7.40;;
51382;SDS011;37475;43.358;1.248;2023-04-29T14:02:52;11.95;;;7.75;;
51382;SDS011;37475;43.358;1.248;2023-04-29T14:05:17;15.18;;;7.90;;
51382;SDS011;37475;43.358;1.248;2023-04-29T14:07:43;14.95;;;8.30;;
51382;SDS011;37475;43.358;1.248;2023-04-29T14:10:09;15.88;;;6.53;;
51382;SDS011;37475;43.358;1.248;2023-04-29T14:12:35;14.32;;;7.80;;
51382;SDS011;37475;43.358;1.248;2023-04-29T14:15:01;13.38;;;6.88;;
51382;SDS011;37475;43.358;1.248;2023-04-29T14:17:27;11.63;;;8.30;;
51382;SDS011;37475;43.358;1.248;2023-04-29T14:19:53;15.57;;;8.15;;
51382;SDS011;37475;43.358;1.248;2023-04-29T14:22:18;12.90;;;7.47;;
51382;SDS011;37475;43.358;1.248;2023-04-29T14:24:45;16.50;;;8.30;;
51382;SDS011;37475;43.358;1.248;2023-04-29T14:27:11;19.13;;;9.65;;
51382;SDS011;37475;43.358;1.248;2023-04-29T14:29:36;16.17;;;9.48;;
51382;SDS011;37475;43.358;1.248;2023-04-29T14:32:02;18.42;;;11.02;;
51382;SDS011;37475;43.358;1.248;2023-04-29T14:34:28;20.30;;;11.30;;
51382;SDS011;37475;43.358;1.248;2023-04-29T14:36:54;17.77;;;10.95;;
51382;SDS011;37475;43.358;1.248;2023-04-29T14:39:23;15.55;;;9.38;;
51382;SDS011;37475;43.358;1.248;2023-04-29T14:41:51;15.63;;;9.32;;
51382;SDS011;37475;43.358;1.248;2023-04-29T14:44:17;14.70;;;9.10;;
51382;SDS011;37475;43.358;1.248;2023-04-29T14:46:42;15.55;;;9.05;;
51382;SDS011;37475;43.358;1.248;2023-04-29T14:49:08;14.30;;;10.00;;
51382;SDS011;37475;43.358;1.248;2023-04-29T14:51:34;16.80;;;9.73;;
51382;SDS011;37475;43.358;1.248;2023-04-29T14:54:00;15.98;;;9.13;;
51382;SDS011;37475;43.358;1.248;2023-04-29T14:56:25;14.80;;;10.35;;
51382;SDS011;37475;43.358;1.248;2023-04-29T14:58:51;15.40;;;9.98;;
51382;SDS011;37475;43.358;1.248;2023-04-29T15:01:17;16.60;;;10.13;;
51382;SDS011;37475;43.358;1.248;2023-04-29T15:03:43;15.75;;;9.27;;
51382;SDS011;37475;43.358;1.248;2023-04-29T15:06:09;16.02;;;9.70;;
51382;SDS011;37475;43.358;1.248;2023-04-29T15:08:35;17.67;;;9.77;;
51382;SDS011;37475;43.358;1.248;2023-04-29T15:11:02;14.00;;;8.65;;
51382;SDS011;37475;43.358;1.248;2023-04-29T15:13:28;14.55;;;8.35;;
51382;SDS011;37475;43.358;1.248;2023-04-29T15:15:53;11.75;;;8.50;;
51382;SDS011;37475;43.358;1.248;2023-04-29T15:18:19;12.75;;;8.30;;
51382;SDS011;37475;43.358;1.248;2023-04-29T15:20:47;12.23;;;7.75;;